sensor_id;sensor_type;location;lat;lon;timestamp;P1;durP1;ratioP1;P2;durP2;ratioP2
79592;SDS011;69074;45.164;9.704;2024-01-10T00:02:24;39.6;;;31.1;;
79592;SDS011;69074;45.164;9.704;2024-01-10T00:04:49;39.6;;;31.1;;
79592;SDS011;69074;45.164;9.704;2024-01-10T00:07:14;39.6;;;31.1;;
79592;SDS011;69074;45.164;9.704;2024-01-10T00:09:39;39.3;;;31.2;;
79592;SDS011;69074;45.164;9.704;2024-01-10T00:12:04;39.3;;;31.2;;
79592;SDS011;69074;45.164;9.704;2024-01-10T00:14:29;39.3;;;31.2;;
79592;SDS011;69074;45.164;9.704;2024-01-10T00:16:54;39.3;;;31.2;;
79592;SDS011;69074;45.164;9.704;2024-01-10T00:19:19;39.3;;;31.2;;
79592;SDS011;69074;45.164;9.704;2024-01-10T00:21:44;39.3;;;31.2;;
79592;SDS011;69074;45.164;9.704;2024-01-10T00:24:09;39.3;;;31.2;;
79592;SDS011;69074;45.164;9.704;2024-01-10T00:26:34;35.8;;;28.1;;
79592;SDS011;69074;45.164;9.704;2024-01-10T00:28:59;35.8;;;28.1;;
79592;SDS011;69074;45.164;9.704;2024-01-10T00:31:24;35.8;;;28.1;;
79592;SDS011;69074;45.164;9.704;2024-01-10T00:33:49;35.8;;;28.1;;
79592;SDS011;69074;45.164;9.704;2024-01-10T00:36:14;35.8;;;28.1;;
79592;SDS011;69074;45.164;9.704;2024-01-10T00:38:39;35.8;;;28.1;;
79592;SDS011;69074;45.164;9.704;2024-01-10T00:41:04;40.2;;;31.9;;
79592;SDS011;69074;45.164;9.704;2024-01-10T00:43:29;40.2;;;31.9;;
79592;SDS011;69074;45.164;9.704;2024-01-10T00:45:54;40.2;;;31.9;;
79592;SDS011;69074;45.164;9.704;2024-01-10T00:48:19;40.2;;;31.9;;
79592;SDS011;69074;45.164;9.704;2024-01-10T00:50:44;40.2;;;31.9;;
79592;SDS011;69074;45.164;9.704;2024-01-10T00:53:09;40.2;;;31.9;;
79592;SDS011;69074;45.164;9.704;2024-01-10T00:55:34;41.5;;;32.6;;
79592;SDS011;69074;45.164;9.704;2024-01-10T00:57:59;41.5;;;32.6;;
79592;SDS011;69074;45.164;9.704;2024-01-10T01:00:24;41.5;;;32.6;;
79592;SDS011;69074;45.164;9.704;2024-01-10T01:02:49;41.5;;;32.6;;
79592;SDS011;69074;45.164;9.704;2024-01-10T01:05:14;41.5;;;32.6;;
79592;SDS011;69074;45.164;9.704;2024-01-10T01:07:39;41.5;;;32.6;;
79592;SDS011;69074;45.164;9.704;2024-01-10T01:10:05;38.6;;;30.8;;
79592;SDS011;69074;45.164;9.704;2024-01-10T01:12:29;38.6;;;30.8;;
79592;SDS011;69074;45.164;9.704;2024-01-10T01:14:54;38.6;;;30.8;;
79592;SDS011;69074;45.164;9.704;2024-01-10T01:17:19;38.6;;;30.8;;
79592;SDS011;69074;45.164;9.704;2024-01-10T01:19:44;38.6;;;30.8;;
79592;SDS011;69074;45.164;9.704;2024-01-10T01:22:09;38.6;;;30.8;;
79592;SDS011;69074;45.164;9.704;2024-01-10T01:24:34;38.6;;;30.8;;
79592;SDS011;69074;45.164;9.704;2024-01-10T01:26:59;35.7;;;28.4;;
79592;SDS011;69074;45.164;9.704;2024-01-10T01:29:24;35.7;;;28.4;;
79592;SDS011;69074;45.164;9.704;2024-01-10T01:31:49;35.7;;;28.4;;
79592;SDS011;69074;45.164;9.704;2024-01-10T01:34:14;35.7;;;28.4;;
79592;SDS011;69074;45.164;9.704;2024-01-10T01:36:39;35.7;;;28.4;;
79592;SDS011;69074;45.164;9.704;2024-01-10T01:39:04;35.7;;;28.4;;
79592;SDS011;69074;45.164;9.704;2024-01-10T01:41:29;33.5;;;27.7;;
79592;SDS011;69074;45.164;9.704;2024-01-10T01:43:54;33.5;;;27.7;;
79592;SDS011;69074;45.164;9.704;2024-01-10T01:46:19;33.5;;;27.7;;
79592;SDS011;69074;45.164;9.704;2024-01-10T01:48:44;33.5;;;27.7;;
79592;SDS011;69074;45.164;9.704;2024-01-10T01:51:09;33.5;;;27.7;;
79592;SDS011;69074;45.164;9.704;2024-01-10T01:53:34;33.5;;;27.7;;
79592;SDS011;69074;45.164;9.704;2024-01-10T01:55:59;31.8;;;25.3;;
79592;SDS011;69074;45.164;9.704;2024-01-10T01:58:24;31.8;;;25.3;;
79592;SDS011;69074;45.164;9.704;2024-01-10T02:00:49;31.8;;;25.3;;
79592;SDS011;69074;45.164;9.704;2024-01-10T02:03:14;31.8;;;25.3;;
79592;SDS011;69074;45.164;9.704;2024-01-10T02:05:39;31.8;;;25.3;;
79592;SDS011;69074;45.164;9.704;2024-01-10T02:08:04;31.8;;;25.3;;
79592;SDS011;69074;45.164;9.704;2024-01-10T02:10:29;30.7;;;24.2;;
79592;SDS011;69074;45.164;9.704;2024-01-10T02:12:54;30.7;;;24.2;;
79592;SDS011;69074;45.164;9.704;2024-01-10T02:15:19;30.7;;;24.2;;
79592;SDS011;69074;45.164;9.704;2024-01-10T02:17:44;30.7;;;24.2;;
79592;SDS011;69074;45.164;9.704;2024-01-10T02:20:09;30.7;;;24.2;;
79592;SDS011;69074;45.164;9.704;2024-01-10T02:22:34;30.7;;;24.2;;
79592;SDS011;69074;45.164;9.704;2024-01-10T02:24:59;29.4;;;23.7;;
79592;SDS011;69074;45.164;9.704;2024-01-10T02:27:24;29.4;;;23.7;;
79592;SDS011;69074;45.164;9.704;2024-01-10T02:29:49;29.4;;;23.7;;
79592;SDS011;69074;45.164;9.704;2024-01-10T02:32:14;29.4;;;23.7;;
79592;SDS011;69074;45.164;9.704;2024-01-10T02:34:39;29.4;;;23.7;;
79592;SDS011;69074;45.164;9.704;2024-01-10T02:37:04;29.4;;;23.7;;
79592;SDS011;69074;45.164;9.704;2024-01-10T02:39:29;29.4;;;23.7;;
79592;SDS011;69074;45.164;9.704;2024-01-10T02:41:54;25.8;;;22.0;;
79592;SDS011;69074;45.164;9.704;2024-01-10T02:44:19;25.8;;;22.0;;
79592;SDS011;69074;45.164;9.704;2024-01-10T02:46:44;25.8;;;22.0;;
79592;SDS011;69074;45.164;9.704;2024-01-10T02:49:09;25.8;;;22.0;;
79592;SDS011;69074;45.164;9.704;2024-01-10T02:51:34;25.8;;;22.0;;
79592;SDS011;69074;45.164;9.704;2024-01-10T02:53:59;25.8;;;22.0;;
79592;SDS011;69074;45.164;9.704;2024-01-10T02:56:24;24.3;;;20.7;;
79592;SDS011;69074;45.164;9.704;2024-01-10T02:58:49;24.3;;;20.7;;
79592;SDS011;69074;45.164;9.704;2024-01-10T03:01:14;24.3;;;20.7;;
79592;SDS011;69074;45.164;9.704;2024-01-10T03:03:39;24.3;;;20.7;;
79592;SDS011;69074;45.164;9.704;2024-01-10T03:06:04;24.3;;;20.7;;
79592;SDS011;69074;45.164;9.704;2024-01-10T03:08:29;24.3;;;20.7;;
79592;SDS011;69074;45.164;9.704;2024-01-10T03:10:54;24.0;;;20.6;;
79592;SDS011;69074;45.164;9.704;2024-01-10T03:13:19;24.0;;;20.6;;
79592;SDS011;69074;45.164;9.704;2024-01-10T03:15:44;24.0;;;20.6;;
79592;SDS011;69074;45.164;9.704;2024-01-10T03:18:09;24.0;;;20.6;;
79592;SDS011;69074;45.164;9.704;2024-01-10T03:20:34;24.0;;;20.6;;
79592;SDS011;69074;45.164;9.704;2024-01-10T03:22:59;24.0;;;20.6;;
79592;SDS011;69074;45.164;9.704;2024-01-10T03:25:24;22.7;;;18.8;;
79592;SDS011;69074;45.164;9.704;2024-01-10T03:27:49;22.7;;;18.8;;
79592;SDS011;69074;45.164;9.704;2024-01-10T03:30:14;22.7;;;18.8;;
79592;SDS011;69074;45.164;9.704;2024-01-10T03:32:39;22.7;;;18.8;;
79592;SDS011;69074;45.164;9.704;2024-01-10T03:35:04;22.7;;;18.8;;
79592;SDS011;69074;45.164;9.704;2024-01-10T03:37:29;22.7;;;18.8;;
79592;SDS011;69074;45.164;9.704;2024-01-10T03:39:54;18.3;;;16.0;;
79592;SDS011;69074;45.164;9.704;2024-01-10T03:42:19;18.3;;;16.0;;
79592;SDS011;69074;45.164;9.704;2024-01-10T03:44:44;18.3;;;16.0;;
79592;SDS011;69074;45.164;9.704;2024-01-10T03:47:09;18.3;;;16.0;;
79592;SDS011;69074;45.164;9.704;2024-01-10T03:49:35;18.3;;;16.0;;
79592;SDS011;69074;45.164;9.704;2024-01-10T03:51:59;18.3;;;16.0;;
79592;SDS011;69074;45.164;9.704;2024-01-10T03:54:24;18.3;;;16.0;;
79592;SDS011;69074;45.164;9.704;2024-01-10T03:56:49;18.4;;;15.5;;
79592;SDS011;69074;45.164;9.704;2024-01-10T03:59:14;18.4;;;15.5;;
79592;SDS011;69074;45.164;9.704;2024-01-10T04:01:39;18.4;;;15.5;;
79592;SDS011;69074;45.164;9.704;2024-01-10T04:04:04;18.4;;;15.5;;
79592;SDS011;69074;45.164;9.704;2024-01-10T04:06:29;18.4;;;15.5;;
79592;SDS011;69074;45.164;9.704;2024-01-10T04:08:54;18.4;;;15.5;;
79592;SDS011;69074;45.164;9.704;2024-01-10T04:11:19;15.3;;;13.6;;
79592;SDS011;69074;45.164;9.704;2024-01-10T04:13:44;15.3;;;13.6;;
79592;SDS011;69074;45.164;9.704;2024-01-10T04:16:09;15.3;;;13.6;;
79592;SDS011;69074;45.164;9.704;2024-01-10T04:18:34;15.3;;;13.6;;
79592;SDS011;69074;45.164;9.704;2024-01-10T04:20:59;15.3;;;13.6;;
79592;SDS011;69074;45.164;9.704;2024-01-10T04:23:24;15.3;;;13.6;;
79592;SDS011;69074;45.164;9.704;2024-01-10T04:25:49;15.7;;;13.0;;
79592;SDS011;69074;45.164;9.704;2024-01-10T04:28:14;15.7;;;13.0;;
79592;SDS011;69074;45.164;9.704;2024-01-10T04:30:39;15.7;;;13.0;;
79592;SDS011;69074;45.164;9.704;2024-01-10T04:33:04;15.7;;;13.0;;
79592;SDS011;69074;45.164;9.704;2024-01-10T04:35:29;15.7;;;13.0;;
79592;SDS011;69074;45.164;9.704;2024-01-10T04:37:54;15.7;;;13.0;;
79592;SDS011;69074;45.164;9.704;2024-01-10T04:40:19;14.8;;;11.7;;
79592;SDS011;69074;45.164;9.704;2024-01-10T04:42:44;14.8;;;11.7;;
79592;SDS011;69074;45.164;9.704;2024-01-10T04:45:09;14.8;;;11.7;;
79592;SDS011;69074;45.164;9.704;2024-01-10T04:47:34;14.8;;;11.7;;
79592;SDS011;69074;45.164;9.704;2024-01-10T04:49:59;14.8;;;11.7;;
79592;SDS011;69074;45.164;9.704;2024-01-10T04:52:24;14.8;;;11.7;;
79592;SDS011;69074;45.164;9.704;2024-01-10T04:54:49;12.4;;;11.0;;
79592;SDS011;69074;45.164;9.704;2024-01-10T04:57:14;12.4;;;11.0;;
79592;SDS011;69074;45.164;9.704;2024-01-10T04:59:39;12.4;;;11.0;;
79592;SDS011;69074;45.164;9.704;2024-01-10T05:02:04;12.4;;;11.0;;
79592;SDS011;69074;45.164;9.704;2024-01-10T05:04:29;12.4;;;11.0;;
79592;SDS011;69074;45.164;9.704;2024-01-10T05:06:54;12.4;;;11.0;;
79592;SDS011;69074;45.164;9.704;2024-01-10T05:09:19;12.4;;;11.0;;
79592;SDS011;69074;45.164;9.704;2024-01-10T05:11:44;11.6;;;9.5;;
79592;SDS011;69074;45.164;9.704;2024-01-10T05:14:09;11.6;;;9.5;;
79592;SDS011;69074;45.164;9.704;2024-01-10T05:16:34;11.6;;;9.5;;
79592;SDS011;69074;45.164;9.704;2024-01-10T05:19:00;11.6;;;9.5;;
79592;SDS011;69074;45.164;9.704;2024-01-10T05:21:24;11.6;;;9.5;;
79592;SDS011;69074;45.164;9.704;2024-01-10T05:23:49;11.6;;;9.5;;
79592;SDS011;69074;45.164;9.704;2024-01-10T05:26:14;10.4;;;8.1;;
79592;SDS011;69074;45.164;9.704;2024-01-10T05:28:39;10.4;;;8.1;;
79592;SDS011;69074;45.164;9.704;2024-01-10T05:31:04;10.4;;;8.1;;
79592;SDS011;69074;45.164;9.704;2024-01-10T05:33:29;10.4;;;8.1;;
79592;SDS011;69074;45.164;9.704;2024-01-10T05:35:54;10.4;;;8.1;;
79592;SDS011;69074;45.164;9.704;2024-01-10T05:38:19;10.4;;;8.1;;
79592;SDS011;69074;45.164;9.704;2024-01-10T05:40:44;8.1;;;7.3;;
79592;SDS011;69074;45.164;9.704;2024-01-10T05:43:09;8.1;;;7.3;;
79592;SDS011;69074;45.164;9.704;2024-01-10T05:45:34;8.1;;;7.3;;
79592;SDS011;69074;45.164;9.704;2024-01-10T05:47:59;8.1;;;7.3;;
79592;SDS011;69074;45.164;9.704;2024-01-10T05:50:24;8.1;;;7.3;;
79592;SDS011;69074;45.164;9.704;2024-01-10T06:00:48;10.0;;;6.7;;
79592;SDS011;69074;45.164;9.704;2024-01-10T06:03:13;10.0;;;6.7;;
79592;SDS011;69074;45.164;9.704;2024-01-10T06:05:38;10.0;;;6.7;;
79592;SDS011;69074;45.164;9.704;2024-01-10T06:08:03;10.0;;;6.7;;
79592;SDS011;69074;45.164;9.704;2024-01-10T06:10:28;10.3;;;7.0;;
79592;SDS011;69074;45.164;9.704;2024-01-10T06:12:53;10.3;;;7.0;;
79592;SDS011;69074;45.164;9.704;2024-01-10T06:15:18;10.3;;;7.0;;
79592;SDS011;69074;45.164;9.704;2024-01-10T06:17:43;10.3;;;7.0;;
79592;SDS011;69074;45.164;9.704;2024-01-10T06:20:08;10.3;;;7.0;;
79592;SDS011;69074;45.164;9.704;2024-01-10T06:22:33;10.3;;;7.0;;
79592;SDS011;69074;45.164;9.704;2024-01-10T06:24:58;8.8;;;6.4;;
79592;SDS011;69074;45.164;9.704;2024-01-10T06:27:23;8.8;;;6.4;;
79592;SDS011;69074;45.164;9.704;2024-01-10T06:29:48;8.8;;;6.4;;
79592;SDS011;69074;45.164;9.704;2024-01-10T06:32:13;8.8;;;6.4;;
79592;SDS011;69074;45.164;9.704;2024-01-10T06:34:38;8.8;;;6.4;;
79592;SDS011;69074;45.164;9.704;2024-01-10T06:37:03;8.8;;;6.4;;
79592;SDS011;69074;45.164;9.704;2024-01-10T06:39:28;8.8;;;6.4;;
79592;SDS011;69074;45.164;9.704;2024-01-10T06:41:53;8.5;;;6.2;;
79592;SDS011;69074;45.164;9.704;2024-01-10T06:44:18;8.5;;;6.2;;
79592;SDS011;69074;45.164;9.704;2024-01-10T06:46:43;8.5;;;6.2;;
79592;SDS011;69074;45.164;9.704;2024-01-10T06:49:08;8.5;;;6.2;;
79592;SDS011;69074;45.164;9.704;2024-01-10T06:51:33;8.5;;;6.2;;
79592;SDS011;69074;45.164;9.704;2024-01-10T06:53:58;8.5;;;6.2;;
79592;SDS011;69074;45.164;9.704;2024-01-10T06:56:23;7.5;;;5.5;;
79592;SDS011;69074;45.164;9.704;2024-01-10T06:58:48;7.5;;;5.5;;
79592;SDS011;69074;45.164;9.704;2024-01-10T07:01:13;7.5;;;5.5;;
79592;SDS011;69074;45.164;9.704;2024-01-10T07:03:38;7.5;;;5.5;;
79592;SDS011;69074;45.164;9.704;2024-01-10T07:06:03;7.5;;;5.5;;
79592;SDS011;69074;45.164;9.704;2024-01-10T07:08:28;7.5;;;5.5;;
79592;SDS011;69074;45.164;9.704;2024-01-10T07:10:53;7.6;;;5.5;;
79592;SDS011;69074;45.164;9.704;2024-01-10T07:13:18;7.6;;;5.5;;
79592;SDS011;69074;45.164;9.704;2024-01-10T07:15:43;7.6;;;5.5;;
79592;SDS011;69074;45.164;9.704;2024-01-10T07:18:08;7.6;;;5.5;;
79592;SDS011;69074;45.164;9.704;2024-01-10T07:20:33;7.6;;;5.5;;
79592;SDS011;69074;45.164;9.704;2024-01-10T07:22:58;7.6;;;5.5;;
79592;SDS011;69074;45.164;9.704;2024-01-10T07:25:23;7.0;;;5.2;;
79592;SDS011;69074;45.164;9.704;2024-01-10T07:27:48;7.0;;;5.2;;
79592;SDS011;69074;45.164;9.704;2024-01-10T07:30:13;7.0;;;5.2;;
79592;SDS011;69074;45.164;9.704;2024-01-10T07:32:38;7.0;;;5.2;;
79592;SDS011;69074;45.164;9.704;2024-01-10T07:35:03;7.0;;;5.2;;
79592;SDS011;69074;45.164;9.704;2024-01-10T07:37:28;7.0;;;5.2;;
79592;SDS011;69074;45.164;9.704;2024-01-10T07:39:53;7.2;;;5.5;;
79592;SDS011;69074;45.164;9.704;2024-01-10T07:42:18;7.2;;;5.5;;
79592;SDS011;69074;45.164;9.704;2024-01-10T07:44:43;7.2;;;5.5;;
79592;SDS011;69074;45.164;9.704;2024-01-10T07:47:08;7.2;;;5.5;;
79592;SDS011;69074;45.164;9.704;2024-01-10T07:49:33;7.2;;;5.5;;
79592;SDS011;69074;45.164;9.704;2024-01-10T07:51:58;7.2;;;5.5;;
79592;SDS011;69074;45.164;9.704;2024-01-10T07:54:23;7.2;;;5.5;;
79592;SDS011;69074;45.164;9.704;2024-01-10T07:56:48;6.5;;;5.3;;
79592;SDS011;69074;45.164;9.704;2024-01-10T07:59:13;6.5;;;5.3;;
79592;SDS011;69074;45.164;9.704;2024-01-10T08:01:38;6.5;;;5.3;;
79592;SDS011;69074;45.164;9.704;2024-01-10T08:04:03;6.5;;;5.3;;
79592;SDS011;69074;45.164;9.704;2024-01-10T08:06:28;6.5;;;5.3;;
79592;SDS011;69074;45.164;9.704;2024-01-10T08:08:53;6.5;;;5.3;;
79592;SDS011;69074;45.164;9.704;2024-01-10T08:11:18;5.6;;;4.8;;
79592;SDS011;69074;45.164;9.704;2024-01-10T08:13:43;5.6;;;4.8;;
79592;SDS011;69074;45.164;9.704;2024-01-10T08:16:08;5.6;;;4.8;;
79592;SDS011;69074;45.164;9.704;2024-01-10T08:18:33;5.6;;;4.8;;
79592;SDS011;69074;45.164;9.704;2024-01-10T08:20:58;5.6;;;4.8;;
79592;SDS011;69074;45.164;9.704;2024-01-10T08:23:23;5.6;;;4.8;;
79592;SDS011;69074;45.164;9.704;2024-01-10T08:25:48;7.4;;;5.9;;
79592;SDS011;69074;45.164;9.704;2024-01-10T08:28:13;7.4;;;5.9;;
79592;SDS011;69074;45.164;9.704;2024-01-10T08:30:38;7.4;;;5.9;;
79592;SDS011;69074;45.164;9.704;2024-01-10T08:33:03;7.4;;;5.9;;
79592;SDS011;69074;45.164;9.704;2024-01-10T08:35:28;7.4;;;5.9;;
79592;SDS011;69074;45.164;9.704;2024-01-10T08:37:53;7.4;;;5.9;;
79592;SDS011;69074;45.164;9.704;2024-01-10T08:40:18;6.0;;;5.3;;
79592;SDS011;69074;45.164;9.704;2024-01-10T08:42:43;6.0;;;5.3;;
79592;SDS011;69074;45.164;9.704;2024-01-10T08:45:08;6.0;;;5.3;;
79592;SDS011;69074;45.164;9.704;2024-01-10T08:47:33;6.0;;;5.3;;
79592;SDS011;69074;45.164;9.704;2024-01-10T08:49:58;6.0;;;5.3;;
79592;SDS011;69074;45.164;9.704;2024-01-10T08:52:23;6.0;;;5.3;;
79592;SDS011;69074;45.164;9.704;2024-01-10T08:54:48;5.7;;;5.0;;
79592;SDS011;69074;45.164;9.704;2024-01-10T08:57:13;5.7;;;5.0;;
79592;SDS011;69074;45.164;9.704;2024-01-10T08:59:40;5.7;;;5.0;;
79592;SDS011;69074;45.164;9.704;2024-01-10T09:02:03;5.7;;;5.0;;
79592;SDS011;69074;45.164;9.704;2024-01-10T09:04:28;5.7;;;5.0;;
79592;SDS011;69074;45.164;9.704;2024-01-10T09:06:53;5.7;;;5.0;;
79592;SDS011;69074;45.164;9.704;2024-01-10T09:09:18;5.7;;;5.0;;
79592;SDS011;69074;45.164;9.704;2024-01-10T09:11:43;6.8;;;5.6;;
79592;SDS011;69074;45.164;9.704;2024-01-10T09:14:08;6.8;;;5.6;;
79592;SDS011;69074;45.164;9.704;2024-01-10T09:16:33;6.8;;;5.6;;
79592;SDS011;69074;45.164;9.704;2024-01-10T09:18:58;6.8;;;5.6;;
79592;SDS011;69074;45.164;9.704;2024-01-10T09:21:23;6.8;;;5.6;;
79592;SDS011;69074;45.164;9.704;2024-01-10T09:23:48;6.8;;;5.6;;
79592;SDS011;69074;45.164;9.704;2024-01-10T09:26:13;7.1;;;6.4;;
79592;SDS011;69074;45.164;9.704;2024-01-10T09:28:38;7.1;;;6.4;;
79592;SDS011;69074;45.164;9.704;2024-01-10T09:31:03;7.1;;;6.4;;
79592;SDS011;69074;45.164;9.704;2024-01-10T09:33:28;7.1;;;6.4;;
79592;SDS011;69074;45.164;9.704;2024-01-10T09:35:53;7.1;;;6.4;;
79592;SDS011;69074;45.164;9.704;2024-01-10T09:38:18;7.1;;;6.4;;
79592;SDS011;69074;45.164;9.704;2024-01-10T09:40:43;11.7;;;9.5;;
79592;SDS011;69074;45.164;9.704;2024-01-10T09:43:08;11.7;;;9.5;;
79592;SDS011;69074;45.164;9.704;2024-01-10T09:45:34;11.7;;;9.5;;
79592;SDS011;69074;45.164;9.704;2024-01-10T09:47:58;11.7;;;9.5;;
79592;SDS011;69074;45.164;9.704;2024-01-10T09:50:23;11.7;;;9.5;;
79592;SDS011;69074;45.164;9.704;2024-01-10T09:52:50;11.7;;;9.5;;
79592;SDS011;69074;45.164;9.704;2024-01-10T09:55:13;16.1;;;11.8;;
79592;SDS011;69074;45.164;9.704;2024-01-10T09:57:39;16.1;;;11.8;;
79592;SDS011;69074;45.164;9.704;2024-01-10T10:00:03;16.1;;;11.8;;
79592;SDS011;69074;45.164;9.704;2024-01-10T10:02:28;16.1;;;11.8;;
79592;SDS011;69074;45.164;9.704;2024-01-10T10:04:54;16.1;;;11.8;;
79592;SDS011;69074;45.164;9.704;2024-01-10T10:07:18;16.1;;;11.8;;
79592;SDS011;69074;45.164;9.704;2024-01-10T10:09:43;16.5;;;13.2;;
79592;SDS011;69074;45.164;9.704;2024-01-10T10:12:08;16.5;;;13.2;;
79592;SDS011;69074;45.164;9.704;2024-01-10T10:14:33;16.5;;;13.2;;
79592;SDS011;69074;45.164;9.704;2024-01-10T10:17:12;16.5;;;13.2;;
79592;SDS011;69074;45.164;9.704;2024-01-10T10:19:23;16.5;;;13.2;;
79592;SDS011;69074;45.164;9.704;2024-01-10T10:21:48;16.5;;;13.2;;
79592;SDS011;69074;45.164;9.704;2024-01-10T10:24:13;16.5;;;13.2;;
79592;SDS011;69074;45.164;9.704;2024-01-10T10:26:38;16.1;;;12.8;;
79592;SDS011;69074;45.164;9.704;2024-01-10T10:29:03;16.1;;;12.8;;
79592;SDS011;69074;45.164;9.704;2024-01-10T10:31:28;16.1;;;12.8;;
79592;SDS011;69074;45.164;9.704;2024-01-10T10:33:53;16.1;;;12.8;;
79592;SDS011;69074;45.164;9.704;2024-01-10T10:36:18;16.1;;;12.8;;
79592;SDS011;69074;45.164;9.704;2024-01-10T10:38:43;16.1;;;12.8;;
79592;SDS011;69074;45.164;9.704;2024-01-10T10:41:08;14.5;;;12.3;;
79592;SDS011;69074;45.164;9.704;2024-01-10T10:43:33;14.5;;;12.3;;
79592;SDS011;69074;45.164;9.704;2024-01-10T10:45:58;14.5;;;12.3;;
79592;SDS011;69074;45.164;9.704;2024-01-10T10:48:23;14.5;;;12.3;;
79592;SDS011;69074;45.164;9.704;2024-01-10T10:50:50;14.5;;;12.3;;
79592;SDS011;69074;45.164;9.704;2024-01-10T10:53:13;14.5;;;12.3;;
79592;SDS011;69074;45.164;9.704;2024-01-10T10:55:38;14.8;;;12.0;;
79592;SDS011;69074;45.164;9.704;2024-01-10T10:58:03;14.8;;;12.0;;
79592;SDS011;69074;45.164;9.704;2024-01-10T11:00:28;14.8;;;12.0;;
79592;SDS011;69074;45.164;9.704;2024-01-10T11:02:53;14.8;;;12.0;;
79592;SDS011;69074;45.164;9.704;2024-01-10T11:05:18;14.8;;;12.0;;
79592;SDS011;69074;45.164;9.704;2024-01-10T11:07:43;14.8;;;12.0;;
79592;SDS011;69074;45.164;9.704;2024-01-10T11:10:08;17.7;;;13.1;;
79592;SDS011;69074;45.164;9.704;2024-01-10T11:12:37;17.7;;;13.1;;
79592;SDS011;69074;45.164;9.704;2024-01-10T11:17:26;17.7;;;13.1;;
79592;SDS011;69074;45.164;9.704;2024-01-10T11:19:56;17.7;;;13.1;;
79592;SDS011;69074;45.164;9.704;2024-01-10T11:22:17;17.7;;;13.1;;
79592;SDS011;69074;45.164;9.704;2024-01-10T11:24:38;16.6;;;12.9;;
79592;SDS011;69074;45.164;9.704;2024-01-10T11:27:07;16.6;;;12.9;;
79592;SDS011;69074;45.164;9.704;2024-01-10T11:29:28;16.6;;;12.9;;
79592;SDS011;69074;45.164;9.704;2024-01-10T11:31:53;16.6;;;12.9;;
79592;SDS011;69074;45.164;9.704;2024-01-10T11:34:22;16.6;;;12.9;;
79592;SDS011;69074;45.164;9.704;2024-01-10T11:36:51;16.6;;;12.9;;
79592;SDS011;69074;45.164;9.704;2024-01-10T11:39:08;16.6;;;12.9;;
79592;SDS011;69074;45.164;9.704;2024-01-10T11:41:34;17.8;;;14.3;;
79592;SDS011;69074;45.164;9.704;2024-01-10T11:44:30;17.8;;;14.3;;
79592;SDS011;69074;45.164;9.704;2024-01-10T11:46:23;17.8;;;14.3;;
79592;SDS011;69074;45.164;9.704;2024-01-10T11:48:48;17.8;;;14.3;;
79592;SDS011;69074;45.164;9.704;2024-01-10T11:51:13;17.8;;;14.3;;
79592;SDS011;69074;45.164;9.704;2024-01-10T11:53:39;17.8;;;14.3;;
79592;SDS011;69074;45.164;9.704;2024-01-10T11:56:08;20.6;;;17.0;;
79592;SDS011;69074;45.164;9.704;2024-01-10T11:58:29;20.6;;;17.0;;
79592;SDS011;69074;45.164;9.704;2024-01-10T12:00:53;20.6;;;17.0;;
79592;SDS011;69074;45.164;9.704;2024-01-10T12:03:18;20.6;;;17.0;;
79592;SDS011;69074;45.164;9.704;2024-01-10T12:05:43;20.6;;;17.0;;
79592;SDS011;69074;45.164;9.704;2024-01-10T12:08:08;20.6;;;17.0;;
79592;SDS011;69074;45.164;9.704;2024-01-10T12:10:33;23.4;;;20.0;;
79592;SDS011;69074;45.164;9.704;2024-01-10T12:12:58;23.4;;;20.0;;
79592;SDS011;69074;45.164;9.704;2024-01-10T12:15:23;23.4;;;20.0;;
79592;SDS011;69074;45.164;9.704;2024-01-10T12:17:48;23.4;;;20.0;;
79592;SDS011;69074;45.164;9.704;2024-01-10T12:20:13;23.4;;;20.0;;
79592;SDS011;69074;45.164;9.704;2024-01-10T12:22:38;23.4;;;20.0;;
79592;SDS011;69074;45.164;9.704;2024-01-10T12:25:04;27.1;;;22.2;;
79592;SDS011;69074;45.164;9.704;2024-01-10T12:27:28;27.1;;;22.2;;
79592;SDS011;69074;45.164;9.704;2024-01-10T12:29:53;27.1;;;22.2;;
79592;SDS011;69074;45.164;9.704;2024-01-10T12:32:19;27.1;;;22.2;;
79592;SDS011;69074;45.164;9.704;2024-01-10T12:34:43;27.1;;;22.2;;
79592;SDS011;69074;45.164;9.704;2024-01-10T12:37:09;27.1;;;22.2;;
79592;SDS011;69074;45.164;9.704;2024-01-10T12:39:33;27.1;;;22.2;;
79592;SDS011;69074;45.164;9.704;2024-01-10T12:41:58;25.8;;;22.1;;
79592;SDS011;69074;45.164;9.704;2024-01-10T12:44:26;25.8;;;22.1;;
79592;SDS011;69074;45.164;9.704;2024-01-10T12:46:49;25.8;;;22.1;;
79592;SDS011;69074;45.164;9.704;2024-01-10T12:49:14;25.8;;;22.1;;
79592;SDS011;69074;45.164;9.704;2024-01-10T12:51:38;25.8;;;22.1;;
79592;SDS011;69074;45.164;9.704;2024-01-10T12:54:03;25.8;;;22.1;;
79592;SDS011;69074;45.164;9.704;2024-01-10T12:56:29;26.8;;;21.7;;
79592;SDS011;69074;45.164;9.704;2024-01-10T12:58:54;26.8;;;21.7;;
79592;SDS011;69074;45.164;9.704;2024-01-10T13:01:18;26.8;;;21.7;;
79592;SDS011;69074;45.164;9.704;2024-01-10T13:03:43;26.8;;;21.7;;
79592;SDS011;69074;45.164;9.704;2024-01-10T13:06:09;26.8;;;21.7;;
79592;SDS011;69074;45.164;9.704;2024-01-10T13:08:33;26.8;;;21.7;;
79592;SDS011;69074;45.164;9.704;2024-01-10T13:10:58;28.7;;;23.3;;
79592;SDS011;69074;45.164;9.704;2024-01-10T13:13:23;28.7;;;23.3;;
79592;SDS011;69074;45.164;9.704;2024-01-10T13:15:48;28.7;;;23.3;;
79592;SDS011;69074;45.164;9.704;2024-01-10T13:18:13;28.7;;;23.3;;
79592;SDS011;69074;45.164;9.704;2024-01-10T13:20:39;28.7;;;23.3;;
79592;SDS011;69074;45.164;9.704;2024-01-10T13:23:03;28.7;;;23.3;;
79592;SDS011;69074;45.164;9.704;2024-01-10T13:25:28;29.4;;;24.8;;
79592;SDS011;69074;45.164;9.704;2024-01-10T13:27:53;29.4;;;24.8;;
79592;SDS011;69074;45.164;9.704;2024-01-10T13:30:19;29.4;;;24.8;;
79592;SDS011;69074;45.164;9.704;2024-01-10T13:32:43;29.4;;;24.8;;
79592;SDS011;69074;45.164;9.704;2024-01-10T13:35:08;29.4;;;24.8;;
79592;SDS011;69074;45.164;9.704;2024-01-10T13:37:33;29.4;;;24.8;;
79592;SDS011;69074;45.164;9.704;2024-01-10T13:39:58;33.5;;;27.0;;
79592;SDS011;69074;45.164;9.704;2024-01-10T13:42:23;33.5;;;27.0;;
79592;SDS011;69074;45.164;9.704;2024-01-10T13:44:48;33.5;;;27.0;;
79592;SDS011;69074;45.164;9.704;2024-01-10T13:47:13;33.5;;;27.0;;
79592;SDS011;69074;45.164;9.704;2024-01-10T13:49:38;33.5;;;27.0;;
79592;SDS011;69074;45.164;9.704;2024-01-10T13:52:04;33.5;;;27.0;;
79592;SDS011;69074;45.164;9.704;2024-01-10T13:54:29;33.5;;;27.0;;
79592;SDS011;69074;45.164;9.704;2024-01-10T13:56:54;35.4;;;28.7;;
79592;SDS011;69074;45.164;9.704;2024-01-10T13:59:18;35.4;;;28.7;;
79592;SDS011;69074;45.164;9.704;2024-01-10T14:01:43;35.4;;;28.7;;
79592;SDS011;69074;45.164;9.704;2024-01-10T14:04:08;35.4;;;28.7;;
79592;SDS011;69074;45.164;9.704;2024-01-10T14:06:33;35.4;;;28.7;;
79592;SDS011;69074;45.164;9.704;2024-01-10T14:08:58;35.4;;;28.7;;
79592;SDS011;69074;45.164;9.704;2024-01-10T14:11:24;32.2;;;27.6;;
79592;SDS011;69074;45.164;9.704;2024-01-10T14:13:48;32.2;;;27.6;;
79592;SDS011;69074;45.164;9.704;2024-01-10T14:16:13;32.2;;;27.6;;
79592;SDS011;69074;45.164;9.704;2024-01-10T14:18:38;32.2;;;27.6;;
79592;SDS011;69074;45.164;9.704;2024-01-10T14:21:04;32.2;;;27.6;;
79592;SDS011;69074;45.164;9.704;2024-01-10T14:23:28;32.2;;;27.6;;
79592;SDS011;69074;45.164;9.704;2024-01-10T14:25:53;34.3;;;28.7;;
79592;SDS011;69074;45.164;9.704;2024-01-10T14:28:19;34.3;;;28.7;;
79592;SDS011;69074;45.164;9.704;2024-01-10T14:30:44;34.3;;;28.7;;
79592;SDS011;69074;45.164;9.704;2024-01-10T14:33:09;34.3;;;28.7;;
79592;SDS011;69074;45.164;9.704;2024-01-10T14:35:33;34.3;;;28.7;;
79592;SDS011;69074;45.164;9.704;2024-01-10T14:37:58;34.3;;;28.7;;
79592;SDS011;69074;45.164;9.704;2024-01-10T14:40:24;33.9;;;29.7;;
79592;SDS011;69074;45.164;9.704;2024-01-10T14:42:48;33.9;;;29.7;;
79592;SDS011;69074;45.164;9.704;2024-01-10T14:45:14;33.9;;;29.7;;
79592;SDS011;69074;45.164;9.704;2024-01-10T14:47:38;33.9;;;29.7;;
79592;SDS011;69074;45.164;9.704;2024-01-10T14:50:04;33.9;;;29.7;;
79592;SDS011;69074;45.164;9.704;2024-01-10T14:52:29;33.9;;;29.7;;